createdAt,value
2022-09-10T06:52:11.512Z,15.90
2022-09-10T06:54:38.045Z,15.90
2022-09-10T06:57:05.067Z,15.90
2022-09-10T06:59:31.617Z,16.00
2022-09-10T07:01:58.231Z,16.10
2022-09-10T07:04:24.856Z,16.20
2022-09-10T07:06:51.500Z,16.30
2022-09-10T07:09:18.061Z,16.40
2022-09-10T07:11:44.619Z,16.50
2022-09-10T07:14:12.539Z,16.60
2022-09-10T07:16:42.086Z,16.60
2022-09-10T07:19:08.769Z,16.70
2022-09-10T07:21:37.727Z,16.70
2022-09-10T07:24:05.717Z,16.80
2022-09-10T07:26:32.597Z,16.90
2022-09-10T07:28:59.702Z,17.00
2022-09-10T07:31:38.250Z,17.10
2022-09-10T07:34:05.245Z,17.10
2022-09-10T07:36:31.942Z,17.20
2022-09-10T07:39:01.728Z,17.30
2022-09-10T07:41:30.214Z,17.40
2022-09-10T07:43:57.429Z,17.50
2022-09-10T07:46:25.669Z,17.60
2022-09-10T07:49:00.491Z,17.70
2022-09-10T07:51:29.513Z,17.70
2022-09-10T07:53:58.027Z,17.80
2022-09-10T07:56:25.175Z,18.00
2022-09-10T07:58:52.440Z,18.10
2022-09-10T08:01:22.297Z,18.10
2022-09-10T08:03:49.013Z,18.20
2022-09-10T08:06:16.475Z,18.20
2022-09-10T08:08:43.311Z,18.30
2022-09-10T08:11:18.204Z,18.30
2022-09-10T08:13:49.887Z,18.20
2022-09-10T08:16:19.252Z,18.40
2022-09-10T08:18:47.727Z,18.50
2022-09-10T08:21:15.707Z,18.50
2022-09-10T08:23:43.787Z,18.40
2022-09-10T08:26:10.339Z,18.40
2022-09-10T08:28:37.739Z,18.50
2022-09-10T08:31:11.474Z,18.70
2022-09-10T08:33:39.684Z,18.90
2022-09-10T08:36:11.947Z,19.00
2022-09-10T08:38:39.966Z,19.00
2022-09-10T08:41:25.829Z,18.90
2022-09-10T08:44:04.205Z,19.00
2022-09-10T08:46:36.633Z,19.30
2022-09-10T08:49:33.317Z,19.40
2022-09-10T08:52:34.060Z,19.20
2022-09-10T08:55:21.564Z,19.20
2022-09-10T08:57:54.224Z,19.50
2022-09-10T09:00:23.864Z,19.70
2022-09-10T09:02:50.414Z,19.80
2022-09-10T09:05:19.790Z,20.00
2022-09-10T09:07:48.279Z,20.00
2022-09-10T09:10:44.070Z,20.00
2022-09-10T09:13:32.145Z,19.80
2022-09-10T09:16:15.201Z,19.80
2022-09-10T09:19:01.035Z,20.00
2022-09-10T09:21:42.941Z,20.30
2022-09-10T09:24:24.124Z,20.50
2022-09-10T09:26:57.329Z,20.10
2022-09-10T09:29:43.619Z,20.40
2022-09-10T09:32:15.868Z,20.50
2022-09-10T09:34:50.490Z,20.50
2022-09-10T09:37:24.636Z,20.60
2022-09-10T09:40:05.885Z,20.60
2022-09-10T09:42:58.377Z,20.70
2022-09-10T09:45:34.899Z,20.90
2022-09-10T09:48:02.480Z,20.90
2022-09-10T09:50:30.006Z,20.80
2022-09-10T09:52:56.619Z,20.60
2022-09-10T09:55:31.035Z,20.60
2022-09-10T09:58:20.713Z,20.60
2022-09-10T10:01:04.145Z,21.10
2022-09-10T10:03:35.413Z,21.20
2022-09-10T10:06:06.846Z,21.10
2022-09-10T10:08:37.687Z,21.10
2022-09-10T10:11:05.019Z,21.00
2022-09-10T10:14:11.635Z,20.90
2022-09-10T10:16:38.408Z,20.90
2022-09-10T10:19:29.327Z,20.80
2022-09-10T10:21:59.666Z,20.90
2022-09-10T10:24:35.971Z,21.00
2022-09-10T10:27:02.611Z,21.10
2022-09-10T10:29:29.658Z,21.40
2022-09-10T10:31:57.475Z,21.60
2022-09-10T10:34:56.371Z,21.40
2022-09-10T10:37:38.036Z,21.50
2022-09-10T10:40:17.709Z,21.40
2022-09-10T10:42:54.880Z,21.60
2022-09-10T10:46:02.853Z,21.50
2022-09-10T10:48:38.388Z,21.30
2022-09-10T10:51:21.563Z,21.60
2022-09-10T10:53:53.804Z,22.00
2022-09-10T10:56:38.558Z,21.80
2022-09-10T10:59:24.402Z,22.00
2022-09-10T11:01:58.005Z,22.20
2022-09-10T11:04:30.566Z,22.20
2022-09-10T11:07:12.773Z,22.00
2022-09-10T11:09:46.730Z,21.60
2022-09-10T11:12:31.599Z,21.70
2022-09-10T11:15:18.337Z,21.80
2022-09-10T11:17:55.626Z,22.20
2022-09-10T11:20:33.342Z,22.90
2022-09-10T11:23:20.121Z,22.90
2022-09-10T11:26:01.046Z,22.60
2022-09-10T11:28:43.652Z,22.80
2022-09-10T11:31:31.925Z,22.40
2022-09-10T11:34:10.136Z,22.50
2022-09-10T11:36:46.476Z,22.70
2022-09-10T11:39:53.032Z,22.70
2022-09-10T11:42:27.806Z,22.80
2022-09-10T11:45:13.680Z,22.90
2022-09-10T11:47:44.701Z,23.20
2022-09-10T11:50:34.318Z,22.60
2022-09-10T11:53:02.278Z,22.50
2022-09-10T11:55:55.266Z,22.20
2022-09-10T11:58:33.080Z,21.90
2022-09-10T12:01:11.857Z,21.70
2022-09-10T12:04:14.977Z,21.70
2022-09-10T12:07:08.439Z,21.50
2022-09-10T12:10:05.354Z,21.50
2022-09-10T12:12:50.100Z,21.30
2022-09-10T12:15:30.913Z,21.30
2022-09-10T12:18:13.547Z,21.40
2022-09-10T12:21:13.594Z,21.60
2022-09-10T12:23:40.377Z,21.70
2022-09-10T12:26:19.660Z,21.70
2022-09-10T12:28:49.472Z,21.80
2022-09-10T12:31:18.063Z,21.60
2022-09-10T12:33:44.663Z,21.90
2022-09-10T12:36:14.166Z,22.10
2022-09-10T12:38:49.454Z,21.80
2022-09-10T12:41:24.897Z,22.10
2022-09-10T12:44:01.726Z,22.50
2022-09-10T12:46:31.269Z,22.90
2022-09-10T12:49:01.048Z,22.70
2022-09-10T12:51:59.278Z,22.40
2022-09-10T12:54:44.841Z,22.50
2022-09-10T12:57:24.546Z,22.70
2022-09-10T13:00:22.139Z,22.50
2022-09-10T13:02:50.745Z,22.90
2022-09-10T13:05:34.190Z,22.90
2022-09-10T13:08:14.893Z,22.90
2022-09-10T13:10:49.945Z,23.30
2022-09-10T13:13:40.070Z,23.80
2022-09-10T13:16:13.892Z,23.40
2022-09-10T13:18:41.955Z,22.80
2022-09-10T13:21:23.764Z,22.60
2022-09-10T13:23:52.066Z,23.00
2022-09-10T13:26:38.250Z,23.10
2022-09-10T13:29:28.519Z,23.90
2022-09-10T13:32:16.363Z,24.40
2022-09-10T13:35:06.194Z,23.90
2022-09-10T13:37:51.858Z,23.10
2022-09-10T13:40:51.875Z,22.90
2022-09-10T13:43:47.603Z,23.00
2022-09-10T13:46:26.393Z,22.90
2022-09-10T13:49:12.396Z,22.90
2022-09-10T13:51:49.155Z,22.80
2022-09-10T13:54:35.058Z,22.30
2022-09-10T13:57:43.127Z,22.20
2022-09-10T14:00:19.665Z,21.70
2022-09-10T14:02:54.093Z,21.70
2022-09-10T14:05:30.999Z,21.40
2022-09-10T14:08:20.509Z,21.30
2022-09-10T14:11:01.146Z,21.10
2022-09-10T14:13:37.473Z,21.10
2022-09-10T14:16:07.198Z,21.00
2022-09-10T14:18:42.838Z,20.90
2022-09-10T14:21:12.598Z,20.70
2022-09-10T14:23:43.694Z,20.60
2022-09-10T14:26:13.100Z,20.50
2022-09-10T14:28:56.871Z,20.60
2022-09-10T14:31:26.686Z,20.60
2022-09-10T14:33:55.451Z,20.60
2022-09-10T14:36:27.919Z,20.60
2022-09-10T14:39:16.939Z,20.60
2022-09-10T14:41:44.215Z,20.60
2022-09-10T14:44:20.357Z,20.60
2022-09-10T14:46:59.964Z,20.60
2022-09-10T14:49:33.623Z,20.50
2022-09-10T14:52:01.625Z,20.30
2022-09-10T14:54:29.814Z,20.40
2022-09-10T14:56:57.975Z,20.40
2022-09-10T14:59:40.015Z,20.60
2022-09-10T15:02:22.750Z,20.50
2022-09-10T15:04:49.984Z,20.50
2022-09-10T15:07:16.682Z,20.60
2022-09-10T15:09:45.604Z,20.70
2022-09-10T15:12:19.947Z,20.80
2022-09-10T15:14:46.504Z,20.80
2022-09-10T15:17:15.277Z,20.90
2022-09-10T15:19:41.946Z,20.90
2022-09-10T15:22:20.729Z,21.00
2022-09-10T15:25:08.699Z,21.10
2022-09-10T15:27:34.537Z,21.40
2022-09-10T15:30:01.396Z,21.60
2022-09-10T15:32:28.081Z,21.40
2022-09-10T15:34:54.925Z,21.40
2022-09-10T15:37:22.419Z,21.60
2022-09-10T15:39:49.459Z,21.90
2022-09-10T15:42:16.957Z,21.80
2022-09-10T15:44:44.088Z,21.50
2022-09-10T15:47:10.656Z,21.30
2022-09-10T15:49:37.207Z,21.30
2022-09-10T15:52:03.839Z,21.30
2022-09-10T15:54:30.408Z,21.30
2022-09-10T15:56:57.060Z,21.50
2022-09-10T15:59:23.654Z,21.80
2022-09-10T16:01:50.452Z,21.80
2022-09-10T16:04:17.233Z,21.60
2022-09-10T16:06:43.792Z,21.40
2022-09-10T16:09:12.946Z,21.20
2022-09-10T16:11:41.412Z,21.20
2022-09-10T16:14:11.817Z,21.00
2022-09-10T16:16:39.063Z,21.10
2022-09-10T16:19:05.903Z,21.30
2022-09-10T16:21:36.070Z,21.30
2022-09-10T16:24:04.392Z,21.40
2022-09-10T16:26:38.315Z,21.30
2022-09-10T16:29:07.653Z,21.20
2022-09-10T16:31:37.012Z,21.10
2022-09-10T16:34:05.431Z,21.00
2022-09-10T16:36:33.754Z,21.00
2022-09-10T16:39:01.691Z,21.00
2022-09-10T16:41:29.006Z,20.90
2022-09-10T16:43:59.184Z,20.90
2022-09-10T16:46:27.442Z,20.90
2022-09-10T16:48:55.308Z,20.80
2022-09-10T16:51:24.244Z,20.70
2022-09-10T16:54:05.317Z,20.70
2022-09-10T16:56:37.837Z,20.50
2022-09-10T16:59:09.168Z,20.50
2022-09-10T17:01:37.185Z,20.60
2022-09-10T17:04:04.673Z,20.60
2022-09-10T17:06:31.936Z,20.50
2022-09-10T17:09:00.559Z,20.40
2022-09-10T17:11:31.340Z,20.30
2022-09-10T17:13:59.266Z,20.30
2022-09-10T17:16:30.488Z,20.30
2022-09-10T17:18:58.081Z,20.20
2022-09-10T17:21:26.595Z,20.20
2022-09-10T17:23:55.732Z,20.10
2022-09-10T17:26:24.307Z,20.00
2022-09-10T17:28:55.572Z,19.90
2022-09-10T17:31:22.717Z,19.90
2022-09-10T17:33:50.078Z,19.80
2022-09-10T17:36:17.669Z,19.80
2022-09-10T17:38:45.036Z,19.70
2022-09-10T17:41:14.459Z,19.60
2022-09-10T17:43:43.004Z,19.50
2022-09-10T17:46:12.597Z,19.50
2022-09-10T17:48:39.356Z,19.40
2022-09-10T17:51:07.295Z,19.40
2022-09-10T17:53:36.140Z,19.30
2022-09-10T17:56:05.276Z,19.30
2022-09-10T17:58:35.164Z,19.20
2022-09-10T18:01:05.838Z,19.20
2022-09-10T18:03:33.510Z,19.20
2022-09-10T18:06:05.293Z,19.20
2022-09-10T18:08:35.962Z,19.20
2022-09-10T18:11:18.500Z,19.10
2022-09-10T18:13:53.670Z,19.10
2022-09-10T18:16:24.378Z,19.10
2022-09-10T18:18:53.923Z,19.00
2022-09-10T18:21:25.668Z,19.00
2022-09-10T18:23:55.068Z,19.00
2022-09-10T18:26:25.007Z,19.00
2022-09-10T18:28:53.962Z,18.90
2022-09-10T18:31:21.890Z,18.90
2022-09-10T18:33:48.909Z,18.90
2022-09-10T18:36:18.423Z,18.90
2022-09-10T18:38:48.941Z,18.90
2022-09-10T18:41:22.516Z,18.90
2022-09-10T18:43:50.443Z,18.80
2022-09-10T18:46:19.007Z,18.80
2022-09-10T18:48:49.951Z,18.80
2022-09-10T18:51:20.471Z,18.80
2022-09-10T18:53:48.311Z,18.80
2022-09-10T18:56:18.455Z,18.70
2022-09-10T18:59:09.321Z,18.70
2022-09-10T19:01:37.715Z,18.70
2022-09-10T19:04:08.991Z,18.70
2022-09-10T19:06:39.222Z,18.60
2022-09-10T19:09:08.536Z,18.70
2022-09-10T19:11:37.606Z,18.60
2022-09-10T19:14:07.350Z,18.70
2022-09-10T19:16:35.629Z,18.60
2022-09-10T19:19:05.409Z,18.60
2022-09-10T19:21:35.302Z,18.60
2022-09-10T19:24:02.241Z,18.50
2022-09-10T19:26:31.717Z,18.50
2022-09-10T19:28:59.818Z,18.50
2022-09-10T19:31:27.657Z,18.50
2022-09-10T19:34:02.283Z,18.50
2022-09-10T19:36:34.492Z,18.40
2022-09-10T19:39:04.731Z,18.40
2022-09-10T19:41:32.117Z,18.30
2022-09-10T19:43:59.631Z,18.30
2022-09-10T19:46:28.301Z,18.30
2022-09-10T19:48:59.802Z,18.20
2022-09-10T19:51:29.016Z,18.20
2022-09-10T19:53:56.182Z,18.20
2022-09-10T19:56:25.206Z,18.20
2022-09-10T19:58:55.564Z,18.10
2022-09-10T20:01:25.653Z,18.00
2022-09-10T20:03:53.575Z,18.10
2022-09-10T20:06:25.384Z,18.00
2022-09-10T20:08:52.607Z,17.90
2022-09-10T20:11:22.232Z,17.90
2022-09-10T20:13:49.537Z,17.90
2022-09-10T20:16:17.276Z,17.90
2022-09-10T20:18:43.962Z,17.80
2022-09-10T20:21:21.469Z,17.80
2022-09-10T20:23:50.942Z,17.80
2022-09-10T20:26:23.547Z,17.80
2022-09-10T20:28:53.134Z,17.70
2022-09-10T20:31:20.872Z,17.70
2022-09-10T20:33:49.267Z,17.70
2022-09-10T20:36:17.105Z,17.70
2022-09-10T20:38:43.914Z,17.70
2022-09-10T20:41:15.779Z,17.70
2022-09-10T20:43:42.609Z,17.70
2022-09-10T20:46:17.019Z,17.60
2022-09-10T20:48:48.856Z,17.60
2022-09-10T20:51:17.772Z,17.50
2022-09-10T20:53:45.379Z,17.50
2022-09-10T20:56:17.792Z,17.40
2022-09-10T20:58:45.360Z,17.40
2022-09-10T21:01:17.276Z,17.40
2022-09-10T21:03:44.281Z,17.40
2022-09-10T21:06:12.190Z,17.30
2022-09-10T21:08:40.631Z,17.20
2022-09-10T21:11:16.759Z,17.20
2022-09-10T21:13:49.664Z,17.20
2022-09-10T21:16:23.399Z,17.10
2022-09-10T21:18:55.207Z,17.10
2022-09-10T21:21:25.659Z,17.00
2022-09-10T21:24:04.580Z,17.00
2022-09-10T21:26:33.732Z,16.90
2022-09-10T21:29:02.522Z,16.90
2022-09-10T21:31:30.354Z,16.90
2022-09-10T21:34:02.780Z,16.90
2022-09-10T21:36:31.621Z,16.80
2022-09-10T21:39:00.099Z,16.80
2022-09-10T21:41:28.166Z,16.80
2022-09-10T21:43:54.788Z,16.70
2022-09-10T21:46:21.489Z,16.60
2022-09-10T21:48:48.121Z,16.70
2022-09-10T21:51:16.728Z,16.60
2022-09-10T21:53:44.419Z,16.60
2022-09-10T21:56:13.612Z,16.50
2022-09-10T21:58:41.521Z,16.60
